Time;durP1;ratioP1;P1;durP2;ratioP2;P2;SDS_P1;SDS_P2;PMS_P1;PMS_P2;Temp;Humidity;BMP_temperature;BMP_pressure;BME280_temperature;BME280_humidity;BME280_pressure;Samples;Min_cycle;Max_cycle;Signal;HPM_P1;HPM_P2
2021/07/28 00:01:19;;;;;;;21.90;11.65;;;;;;;16.38;90.68;100409.16;124474;1096;64854;-75
2021/07/28 00:03:48;;;;;;;22.97;13.10;;;;;;;16.38;90.98;100419.05;124388;1096;64370;-76
2021/07/28 00:06:28;;;;;;;18.80;11.60;;;;;;;16.38;90.79;100413.69;124356;1095;64300;-74
2021/07/28 00:08:55;;;;;;;22.07;11.90;;;;;;;16.37;90.51;100412.88;124341;1096;64271;-74
2021/07/28 00:11:22;;;;;;;21.27;12.27;;;;;;;16.37;90.77;100401.36;124260;1097;64403;-75
2021/07/28 00:13:49;;;;;;;19.63;11.07;;;;;;;16.38;90.76;100397.63;124275;1095;64243;-77
2021/07/28 00:16:17;;;;;;;26.10;12.90;;;;;;;16.38;90.72;100397.63;124408;1095;64573;-76
2021/07/28 00:24:15;;;;;;;18.80;10.27;;;;;;;16.39;90.45;100386.71;124375;1096;62056;-76
2021/07/28 00:26:43;;;;;;;19.53;11.50;;;;;;;16.39;90.49;100388.58;124372;1095;64394;-78
2021/07/28 00:29:10;;;;;;;22.10;11.33;;;;;;;16.38;90.42;100382.38;124328;1096;64335;-75
2021/07/28 00:31:37;;;;;;;27.80;13.37;;;;;;;16.39;90.54;100383.22;124318;1096;64323;-76
2021/07/28 00:34:04;;;;;;;19.40;10.95;;;;;;;16.38;90.09;100376.22;124392;1095;64317;-75
2021/07/28 00:36:31;;;;;;;27.43;12.33;;;;;;;16.38;90.42;100373.54;124455;1096;64316;-74
2021/07/28 00:39:02;;;;;;;19.67;11.77;;;;;;;16.38;90.33;100370.86;124439;1095;64274;-73
2021/07/28 00:41:30;;;;;;;19.25;10.40;;;;;;;16.38;90.38;100365.51;124382;1096;64390;-76
2021/07/28 00:43:57;;;;;;;18.50;10.83;;;;;;;16.36;90.33;100363.05;124334;1095;64311;-79
2021/07/28 00:46:24;;;;;;;18.60;10.13;;;;;;;16.37;90.02;100363.89;124369;1095;64392;-73
2021/07/28 00:48:51;;;;;;;17.17;9.13;;;;;;;16.35;89.99;100356.06;124295;1096;65595;-76
2021/07/28 00:51:18;;;;;;;19.23;10.83;;;;;;;16.35;90.26;100355.25;124350;1096;64333;-73
2021/07/28 00:53:45;;;;;;;15.47;8.80;;;;;;;16.34;89.98;100350.92;124528;1096;64288;-76
2021/07/28 00:56:13;;;;;;;15.30;10.00;;;;;;;16.34;90.20;100351.73;124169;1097;64271;-73
2021/07/28 00:58:42;;;;;;;18.07;10.70;;;;;;;16.35;89.96;100355.25;124414;1095;64725;-77
2021/07/28 01:01:08;;;;;;;14.80;8.63;;;;;;;16.34;90.03;100358.95;124323;1095;64250;-75
2021/07/28 01:03:43;;;;;;;17.57;9.70;;;;;;;16.33;90.04;100351.98;124212;1097;64327;-73
2021/07/28 01:06:16;;;;;;;18.60;9.40;;;;;;;16.33;89.86;100354.66;124218;1097;64295;-74
2021/07/28 01:08:43;;;;;;;18.87;10.13;;;;;;;16.30;89.69;100354.06;124327;1095;64232;-73
2021/07/28 01:11:11;;;;;;;18.97;11.43;;;;;;;16.29;90.21;100355.08;124371;1096;64422;-77
2021/07/28 01:13:38;;;;;;;31.27;12.57;;;;;;;16.28;90.29;100350.78;124364;1095;64317;-75
2021/07/28 01:16:23;;;;;;;19.70;11.00;;;;;;;16.27;90.42;100337.61;124314;1095;64362;-75
2021/07/28 01:18:52;;;;;;;17.97;10.77;;;;;;;16.27;90.43;100342.97;124357;1097;64267;-76
2021/07/28 01:21:21;;;;;;;15.47;9.57;;;;;;;16.25;90.87;100340.50;124294;1097;64304;-75
2021/07/28 01:24:05;;;;;;;18.63;10.27;;;;;;;16.24;90.89;100341.55;124500;1096;64402;-77
2021/07/28 01:26:36;;;;;;;17.03;9.87;;;;;;;16.21;91.03;100333.95;124393;1096;64755;-74
2021/07/28 01:29:04;;;;;;;16.27;10.57;;;;;;;16.20;91.36;100342.22;124427;1095;64278;-72
2021/07/28 01:31:39;;;;;;;17.55;10.00;;;;;;;16.17;91.26;100339.97;124385;1095;64320;-75
2021/07/28 01:34:11;;;;;;;18.97;9.87;;;;;;;16.15;91.53;100344.72;124274;1096;64297;-73
2021/07/28 01:36:40;;;;;;;18.40;10.43;;;;;;;16.12;91.73;100351.34;124372;1095;64389;-76
2021/07/28 01:39:08;;;;;;;18.57;10.00;;;;;;;16.09;92.14;100346.44;124362;1097;64246;-74
2021/07/28 01:41:35;;;;;;;17.03;10.43;;;;;;;16.04;92.47;100343.59;124326;1097;64247;-76
2021/07/28 01:44:02;;;;;;;15.87;10.27;;;;;;;15.99;92.03;100332.73;124314;1096;64211;-74
2021/07/28 01:46:29;;;;;;;13.40;9.50;;;;;;;15.94;92.32;100337.91;124452;1095;64297;-75
2021/07/28 01:48:56;;;;;;;17.50;9.75;;;;;;;15.90;93.00;100340.23;124268;1096;64438;-74
2021/07/28 01:51:23;;;;;;;17.57;9.23;;;;;;;15.87;92.75;100336.14;124358;1096;64314;-75
2021/07/28 01:53:50;;;;;;;16.50;9.37;;;;;;;15.83;92.91;100337.61;124343;1096;64304;-77
2021/07/28 01:56:18;;;;;;;17.13;10.93;;;;;;;15.80;92.80;100343.38;124243;1096;64298;-75
2021/07/28 01:58:54;;;;;;;16.57;10.33;;;;;;;15.78;93.12;100350.80;124334;1096;64358;-74
2021/07/28 02:01:21;;;;;;;12.73;9.70;;;;;;;15.74;93.39;100344.25;124400;1095;64905;-76
2021/07/28 02:03:48;;;;;;;14.77;9.37;;;;;;;15.72;93.33;100348.17;124216;1096;64243;-76
2021/07/28 02:06:15;;;;;;;16.93;9.50;;;;;;;15.67;93.30;100346.13;124422;1095;64297;-76
2021/07/28 02:08:44;;;;;;;13.50;9.23;;;;;;;15.64;92.94;100346.55;124259;1095;64274;-77
2021/07/28 02:11:11;;;;;;;30.10;10.60;;;;;;;15.61;92.92;100350.48;124563;1095;64215;-78
2021/07/28 02:13:38;;;;;;;18.50;10.30;;;;;;;15.59;93.37;100354.41;124388;1096;64192;-76
2021/07/28 02:16:06;;;;;;;11.67;8.37;;;;;;;15.56;93.52;100362.88;124483;1095;64246;-75
2021/07/28 02:18:39;;;;;;;19.93;8.93;;;;;;;15.53;92.79;100357.95;124391;1095;64304;-76
2021/07/28 02:21:06;;;;;;;16.30;9.07;;;;;;;15.50;93.31;100354.66;124435;1097;64282;-76
2021/07/28 02:23:33;;;;;;;20.60;11.37;;;;;;;15.48;93.29;100362.08;124221;1095;64403;-77
2021/07/28 02:26:01;;;;;;;18.17;8.97;;;;;;;15.44;93.41;100360.87;124320;1096;64419;-74
2021/07/28 02:28:29;;;;;;;18.03;9.47;;;;;;;15.43;93.54;100359.25;124276;1100;64378;-78
2021/07/28 02:30:56;;;;;;;21.10;9.55;;;;;;;15.41;93.56;100361.31;124411;1094;64320;-75
2021/07/28 02:33:23;;;;;;;14.90;8.83;;;;;;;15.38;93.86;100361.73;124266;1095;64204;-72
2021/07/28 02:35:50;;;;;;;16.13;9.17;;;;;;;15.37;93.81;100362.77;124370;1096;64227;-78
2021/07/28 02:38:17;;;;;;;14.10;9.33;;;;;;;15.35;93.77;100358.69;124294;1095;64298;-81
2021/07/28 02:40:44;;;;;;;18.77;9.27;;;;;;;15.33;93.66;100355.41;124426;1095;64313;-75
2021/07/28 02:43:11;;;;;;;14.70;8.40;;;;;;;15.32;93.46;100351.89;124295;1095;64224;-76
2021/07/28 02:45:38;;;;;;;11.85;8.00;;;;;;;15.31;93.92;100349.45;124384;1096;64301;-74
2021/07/28 02:48:05;;;;;;;13.00;8.17;;;;;;;15.29;93.87;100352.33;124413;1096;64332;-73
2021/07/28 02:50:33;;;;;;;16.03;8.77;;;;;;;15.28;93.86;100346.17;124754;1095;64296;-77
2021/07/28 02:53:00;;;;;;;20.73;9.37;;;;;;;15.26;93.65;100348.23;124293;1096;64323;-74
2021/07/28 02:55:28;;;;;;;12.43;7.70;;;;;;;15.24;93.82;100355.65;124316;1096;64677;-74
2021/07/28 02:58:00;;;;;;;13.70;8.67;;;;;;;15.22;94.06;100357.72;124408;1096;64304;-76
2021/07/28 03:00:30;;;;;;;13.67;8.57;;;;;;;15.20;94.13;100353.63;124305;1096;64381;-76
2021/07/28 03:02:57;;;;;;;17.73;9.67;;;;;;;15.16;94.06;100358.56;124425;1095;64387;-75
2021/07/28 03:05:24;;;;;;;15.90;8.50;;;;;;;15.14;94.79;100365.16;124424;1096;64323;-75
2021/07/28 03:07:51;;;;;;;18.03;8.83;;;;;;;15.12;94.76;100356.55;124509;1097;64342;-73
2021/07/28 03:10:18;;;;;;;15.83;9.90;;;;;;;15.09;94.81;100355.94;124274;1095;64292;-74
2021/07/28 03:12:45;;;;;;;15.43;9.23;;;;;;;15.07;94.80;100351.84;124328;1096;64317;-76
2021/07/28 03:15:12;;;;;;;18.53;10.37;;;;;;;15.06;95.14;100356.34;124633;1096;64400;-74
2021/07/28 03:17:39;;;;;;;18.40;8.95;;;;;;;15.04;95.33;100355.73;124387;1097;64577;-76
2021/07/28 03:20:07;;;;;;;18.70;10.47;;;;;;;15.04;94.72;100366.42;124554;1096;64319;-74
2021/07/28 03:22:45;;;;;;;16.00;9.17;;;;;;;15.02;95.25;100363.14;124274;1095;64342;-79
2021/07/28 03:25:18;;;;;;;15.60;8.87;;;;;;;15.00;95.25;100370.58;124383;1096;64246;-75
2021/07/28 03:27:45;;;;;;;20.53;9.77;;;;;;;14.97;95.25;100373.66;124331;1096;64250;-75
2021/07/28 03:30:14;;;;;;;18.50;9.60;;;;;;;14.96;95.09;100374.70;124483;1096;64352;-74
2021/07/28 03:32:55;;;;;;;18.05;9.10;;;;;;;14.95;95.77;100373.05;124429;1096;64346;-73
2021/07/28 03:35:33;;;;;;;14.17;9.50;;;;;;;14.95;95.47;100377.57;124362;1096;63881;-74
2021/07/28 03:38:00;;;;;;;16.87;9.43;;;;;;;14.94;96.21;100379.43;124302;1096;64342;-73
2021/07/28 03:40:32;;;;;;;14.17;8.87;;;;;;;14.95;95.70;100378.38;124848;1097;64189;-75
2021/07/28 03:42:59;;;;;;;16.75;9.15;;;;;;;14.97;96.05;100376.33;125074;1097;64247;-75
2021/07/28 03:45:26;;;;;;;21.63;10.67;;;;;;;14.99;95.60;100374.26;124210;1097;64306;-75
2021/07/28 03:47:53;;;;;;;15.37;9.90;;;;;;;15.00;95.64;100370.58;124294;1095;62788;-74
2021/07/28 03:50:20;;;;;;;19.27;9.43;;;;;;;15.04;95.57;100376.30;124281;1096;64323;-76
2021/07/28 03:52:47;;;;;;;14.50;8.75;;;;;;;15.06;95.38;100376.90;124240;1096;64315;-74
2021/07/28 03:55:15;;;;;;;14.70;8.90;;;;;;;15.08;95.78;100375.65;124319;1095;64403;-74
2021/07/28 03:57:42;;;;;;;16.83;8.63;;;;;;;15.11;95.32;100379.77;124425;1095;64387;-74
2021/07/28 04:00:09;;;;;;;14.43;8.80;;;;;;;15.14;95.16;100359.82;124266;1096;64323;-74
2021/07/28 04:02:43;;;;;;;14.87;9.37;;;;;;;15.17;95.31;100370.06;124400;1096;64246;-76
2021/07/28 04:05:12;;;;;;;14.85;9.45;;;;;;;15.20;94.73;100373.14;124295;1096;64269;-73
2021/07/28 04:07:45;;;;;;;14.67;9.33;;;;;;;15.24;94.90;100370.88;124414;1097;64349;-76
2021/07/28 04:10:18;;;;;;;15.60;9.80;;;;;;;15.27;94.76;100363.23;124466;1097;64311;-78
2021/07/28 04:12:45;;;;;;;17.10;11.23;;;;;;;15.32;94.54;100362.58;124275;1095;64253;-75
2021/07/28 04:15:12;;;;;;;15.03;9.80;;;;;;;15.36;94.24;100361.12;124329;1095;64298;-75
2021/07/28 04:17:39;;;;;;;17.93;9.83;;;;;;;15.41;93.94;100360.50;124316;1097;64413;-75
2021/07/28 04:20:07;;;;;;;15.73;9.13;;;;;;;15.45;93.65;100357.18;124170;1095;64282;-75
2021/07/28 04:22:34;;;;;;;14.40;9.87;;;;;;;15.52;93.50;100348.30;124413;1097;64769;-74
2021/07/28 04:25:04;;;;;;;13.87;9.40;;;;;;;15.56;93.02;100352.99;124372;1096;64317;-76
2021/07/28 04:27:37;;;;;;;15.73;11.03;;;;;;;15.60;93.09;100348.05;124361;1096;64789;-74
2021/07/28 04:30:05;;;;;;;20.55;10.75;;;;;;;15.64;92.67;100349.22;124392;1096;64327;-75
2021/07/28 04:32:33;;;;;;;17.77;10.70;;;;;;;15.68;92.21;100345.92;124583;1096;64371;-76
2021/07/28 04:35:01;;;;;;;25.53;11.63;;;;;;;15.73;92.33;100347.97;124533;1096;64302;-76
2021/07/28 04:37:33;;;;;;;15.75;8.70;;;;;;;15.76;91.73;100339.50;124225;1097;64278;-74
2021/07/28 04:40:01;;;;;;;21.30;11.33;;;;;;;15.77;92.05;100343.83;124380;1096;64233;-74
2021/07/28 04:42:29;;;;;;;14.95;9.55;;;;;;;15.79;91.74;100340.91;124239;1096;64368;-76
2021/07/28 04:44:57;;;;;;;18.57;9.27;;;;;;;15.79;91.28;100336.41;124297;1096;64255;-74
2021/07/28 04:47:24;;;;;;;15.43;9.50;;;;;;;15.81;91.05;100334.33;124403;1096;64416;-74
2021/07/28 04:49:52;;;;;;;17.90;11.13;;;;;;;15.83;91.15;100339.44;124337;1095;64278;-75
2021/07/28 04:52:24;;;;;;;15.77;9.90;;;;;;;15.87;90.63;100337.97;124339;1096;64387;-75
2021/07/28 04:54:55;;;;;;;11.40;8.85;;;;;;;15.95;90.56;100339.56;124389;1096;64358;-75
2021/07/28 04:57:22;;;;;;;17.27;9.90;;;;;;;16.00;90.36;100337.88;124334;1096;64303;-74
2021/07/28 04:59:52;;;;;;;15.10;9.83;;;;;;;16.08;89.84;100336.77;124176;1096;64301;-76
2021/07/28 05:02:26;;;;;;;22.20;9.93;;;;;;;16.16;89.44;100341.84;124406;1096;64294;-75
2021/07/28 05:04:54;;;;;;;18.43;8.97;;;;;;;16.24;89.02;100338.07;124205;1096;63469;-74
2021/07/28 05:07:38;;;;;;;19.73;9.40;;;;;;;16.30;88.54;100338.00;124378;1095;64731;-79
2021/07/28 05:10:06;;;;;;;29.20;17.27;;;;;;;16.42;88.92;100330.03;124571;1095;64329;-77
2021/07/28 05:12:35;;;;;;;24.50;13.83;;;;;;;16.52;89.12;100334.88;124385;1095;64352;-78
2021/07/28 05:15:02;;;;;;;19.47;9.60;;;;;;;16.63;87.83;100341.36;124305;1097;64371;-76
2021/07/28 05:17:29;;;;;;;34.80;20.67;;;;;;;16.68;86.96;100342.33;124234;1096;64229;-76
2021/07/28 05:19:58;;;;;;;15.97;8.97;;;;;;;16.71;86.59;100339.19;124318;1095;64368;-77
2021/07/28 05:22:25;;;;;;;19.33;10.30;;;;;;;16.78;86.32;100344.47;124430;1095;64335;-78
2021/07/28 05:24:54;;;;;;;16.27;10.03;;;;;;;16.85;86.13;100344.41;124341;1095;64945;-77
2021/07/28 05:27:22;;;;;;;13.97;10.07;;;;;;;16.91;85.58;100343.52;124394;1096;64159;-79
2021/07/28 05:29:49;;;;;;;13.17;9.47;;;;;;;16.97;85.77;100347.17;124337;1094;64413;-79
2021/07/28 05:32:17;;;;;;;13.33;8.83;;;;;;;17.00;84.72;100344.02;124252;1097;64314;-77
2021/07/28 05:34:44;;;;;;;14.37;8.13;;;;;;;17.04;84.56;100342.53;124448;1097;64227;-77
2021/07/28 05:37:11;;;;;;;16.35;9.40;;;;;;;17.08;84.63;100344.52;124250;1095;64343;-78
2021/07/28 05:39:39;;;;;;;10.73;7.87;;;;;;;17.11;85.14;100352.13;124507;1096;64307;-77
2021/07/28 05:42:06;;;;;;;13.87;9.20;;;;;;;17.18;84.98;100351.23;124396;1095;62865;-76
2021/07/28 05:44:33;;;;;;;12.10;8.35;;;;;;;17.22;84.09;100352.41;124467;1095;64380;-80
2021/07/28 05:47:01;;;;;;;13.50;9.53;;;;;;;17.27;84.25;100350.66;124402;1096;64299;-77
2021/07/28 05:49:40;;;;;;;13.40;8.73;;;;;;;17.34;84.22;100350.59;124462;1095;64317;-80
2021/07/28 05:52:07;;;;;;;14.60;9.10;;;;;;;17.38;84.03;100351.75;124439;1096;65513;-78
2021/07/28 05:54:34;;;;;;;14.27;8.63;;;;;;;17.46;83.97;100350.62;124243;1095;64284;-79
2021/07/28 05:57:02;;;;;;;12.87;9.23;;;;;;;17.50;83.77;100363.34;124492;1096;64391;-76
2021/07/28 05:59:29;;;;;;;19.15;8.60;;;;;;;17.57;83.77;100362.42;124366;1096;64304;-75
2021/07/28 06:01:57;;;;;;;26.80;8.97;;;;;;;17.67;84.23;100368.86;124386;1095;64330;-75
2021/07/28 06:04:26;;;;;;;13.17;9.17;;;;;;;17.77;83.47;100368.31;124490;1097;64300;-77
2021/07/28 06:06:54;;;;;;;13.30;8.63;;;;;;;17.87;83.26;100360.55;124938;1096;64320;-76
2021/07/28 06:09:22;;;;;;;14.50;8.97;;;;;;;17.95;82.18;100374.66;125414;1096;64292;-80
2021/07/28 06:11:49;;;;;;;12.80;8.77;;;;;;;17.99;82.27;100370.47;124547;1095;64307;-76
2021/07/28 06:14:18;;;;;;;11.47;8.17;;;;;;;17.99;81.34;100373.16;124336;1096;64413;-77
2021/07/28 06:16:46;;;;;;;10.40;7.87;;;;;;;18.06;81.87;100371.17;124520;1096;64303;-77
2021/07/28 06:19:13;;;;;;;11.43;8.00;;;;;;;18.13;79.80;100374.58;124533;1096;64760;-78
2021/07/28 06:21:40;;;;;;;12.27;8.23;;;;;;;18.25;80.92;100375.38;124341;1095;64316;-80
2021/07/28 06:24:08;;;;;;;12.93;8.50;;;;;;;18.36;78.41;100381.82;124345;1096;64236;-77
2021/07/28 06:26:35;;;;;;;9.07;7.47;;;;;;;18.45;77.59;100379.59;124412;1095;64271;-77
2021/07/28 06:29:08;;;;;;;10.27;7.23;;;;;;;18.54;78.69;100378.17;124556;1096;64316;-78
2021/07/28 06:31:38;;;;;;;12.15;7.85;;;;;;;18.62;78.95;100369.76;124551;1096;64625;-80
2021/07/28 06:34:07;;;;;;;10.10;6.93;;;;;;;18.66;78.02;100370.92;124373;1096;64444;-80
2021/07/28 06:36:36;;;;;;;9.77;7.63;;;;;;;18.70;77.56;100366.71;124381;1096;64231;-77
2021/07/28 06:39:26;;;;;;;12.37;6.83;;;;;;;18.77;75.76;100360.39;124714;1095;65169;-77
2021/07/28 06:44:32;;;;;;;9.47;7.07;;;;;;;18.75;76.55;100369.49;125038;1095;64210;-77
2021/07/28 06:47:19;;;;;;;12.47;6.70;;;;;;;18.66;76.41;100376.30;124754;1096;64872;-77
2021/07/28 06:49:47;;;;;;;10.40;6.93;;;;;;;18.56;76.31;100381.45;124695;1095;64208;-76
2021/07/28 06:52:14;;;;;;;13.13;6.47;;;;;;;18.54;76.53;100376.30;124687;1096;64323;-76
2021/07/28 06:54:41;;;;;;;9.53;7.33;;;;;;;18.56;76.81;100369.89;124725;1096;64304;-76
2021/07/28 06:57:08;;;;;;;10.70;6.30;;;;;;;18.58;75.58;100370.47;124753;1095;64881;-76
2021/07/28 06:59:38;;;;;;;9.75;6.70;;;;;;;18.61;76.76;100368.11;124767;1096;64467;-77
2021/07/28 07:02:29;;;;;;;11.10;6.80;;;;;;;18.60;75.92;100363.80;124389;1096;64224;-77
2021/07/28 07:04:56;;;;;;;9.00;6.40;;;;;;;18.63;76.31;100365.20;124749;1097;64281;-75
2021/07/28 07:07:23;;;;;;;9.73;6.60;;;;;;;18.62;76.32;100367.07;124719;1096;64307;-77
2021/07/28 07:09:54;;;;;;;10.03;6.53;;;;;;;18.59;76.03;100364.84;124304;1096;64208;-75
2021/07/28 07:12:23;;;;;;;8.50;7.13;;;;;;;18.61;75.54;100370.80;124728;1096;64857;-76
2021/07/28 07:14:50;;;;;;;9.47;6.53;;;;;;;18.67;76.06;100361.80;124845;1096;64268;-75
2021/07/28 07:17:17;;;;;;;10.43;5.53;;;;;;;18.79;76.93;100361.00;124753;1097;64304;-76
2021/07/28 07:19:52;;;;;;;8.60;6.03;;;;;;;18.90;75.82;100358.27;124286;1096;64279;-75
2021/07/28 07:22:20;;;;;;;10.77;7.03;;;;;;;19.02;74.76;100371.69;124764;1095;64227;-76
2021/07/28 07:24:47;;;;;;;10.90;7.57;;;;;;;19.13;74.35;100357.38;124682;1096;64281;-74
2021/07/28 07:27:15;;;;;;;9.87;6.47;;;;;;;19.28;74.54;100358.73;124637;1096;64307;-76
2021/07/28 07:29:43;;;;;;;16.23;6.70;;;;;;;19.38;72.65;100358.92;124659;1096;64381;-76
2021/07/28 07:32:30;;;;;;;10.57;6.30;;;;;;;19.41;72.44;100344.97;124746;1097;64279;-79
2021/07/28 07:35:00;;;;;;;7.63;6.20;;;;;;;19.49;72.89;100352.66;124648;1096;64282;-76
2021/07/28 07:37:28;;;;;;;11.60;5.90;;;;;;;19.56;72.59;100352.50;124384;1095;64506;-76
2021/07/28 07:39:56;;;;;;;11.63;5.87;;;;;;;19.66;72.19;100363.44;124883;1096;64208;-72
2021/07/28 07:42:23;;;;;;;8.05;6.70;;;;;;;19.79;71.45;100362.34;124773;1096;64297;-77
2021/07/28 07:44:53;;;;;;;8.20;5.27;;;;;;;20.01;72.15;100365.10;124775;1095;64301;-76
2021/07/28 07:47:20;;;;;;;8.37;6.37;;;;;;;20.25;71.74;100354.98;124766;1096;64310;-77
2021/07/28 07:49:47;;;;;;;8.10;5.70;;;;;;;20.43;70.13;100363.84;124736;1096;64361;-77
2021/07/28 07:52:15;;;;;;;9.60;5.57;;;;;;;20.60;68.69;100372.72;124386;1095;64307;-76
2021/07/28 07:54:42;;;;;;;10.35;5.45;;;;;;;20.70;68.30;100372.86;124504;1096;64247;-76
2021/07/28 07:57:11;;;;;;;8.53;5.33;;;;;;;20.85;65.94;100363.34;124798;1096;64304;-77
2021/07/28 07:59:43;;;;;;;8.37;5.30;;;;;;;20.90;66.94;100380.38;124630;1096;64254;-81
2021/07/28 08:02:10;;;;;;;8.53;5.03;;;;;;;20.92;65.44;100370.15;124821;1096;64435;-79
2021/07/28 08:04:37;;;;;;;8.90;5.60;;;;;;;20.88;65.64;100368.21;125931;1096;64188;-80
2021/07/28 08:07:12;;;;;;;6.50;4.77;;;;;;;20.87;65.84;100371.95;125374;1096;64301;-80
2021/07/28 08:09:39;;;;;;;7.13;4.53;;;;;;;20.90;66.25;100366.08;125214;1096;64276;-80
2021/07/28 08:12:06;;;;;;;6.03;4.20;;;;;;;20.88;65.85;100370.91;125060;1094;64281;-81
2021/07/28 08:14:33;;;;;;;8.97;5.10;;;;;;;20.91;67.07;100373.92;125642;1096;64208;-83
2021/07/28 08:17:04;;;;;;;6.60;4.57;;;;;;;20.85;65.53;100369.53;126009;1095;64224;-81
2021/07/28 08:19:32;;;;;;;6.03;4.17;;;;;;;20.87;65.68;100364.71;126224;1096;64205;-79
2021/07/28 08:21:59;;;;;;;6.05;4.10;;;;;;;20.90;65.99;100376.87;125691;1096;64259;-79
2021/07/28 08:24:36;;;;;;;6.13;4.27;;;;;;;20.97;65.42;100377.48;124806;1095;64364;-81
2021/07/28 08:27:03;;;;;;;7.20;4.23;;;;;;;21.13;65.31;100371.20;125456;1096;64250;-80
2021/07/28 08:29:36;;;;;;;11.33;4.47;;;;;;;21.28;63.98;100367.86;125630;1096;64303;-81
2021/07/28 08:32:04;;;;;;;6.33;4.03;;;;;;;21.46;64.14;100358.61;125559;1095;64756;-79
2021/07/28 08:34:33;;;;;;;6.17;3.57;;;;;;;21.54;62.69;100355.45;125821;1095;64296;-80
2021/07/28 08:37:22;;;;;;;8.60;4.40;;;;;;;21.56;62.67;100369.50;125115;1095;64233;-80
2021/07/28 08:39:50;;;;;;;4.10;2.97;;;;;;;21.62;63.23;100358.77;125140;1096;64512;-81
2021/07/28 08:42:18;;;;;;;4.70;3.43;;;;;;;21.71;62.98;100359.91;125594;1095;64235;-80
2021/07/28 08:44:47;;;;;;;4.15;3.40;;;;;;;21.61;62.33;100354.42;125950;1096;64342;-80
2021/07/28 08:47:18;;;;;;;4.95;3.10;;;;;;;21.66;64.01;100352.59;125327;1095;64284;-80
2021/07/28 08:49:46;;;;;;;5.50;3.30;;;;;;;21.57;62.45;100349.55;125636;1095;64216;-82
2021/07/28 08:52:16;;;;;;;5.60;3.27;;;;;;;21.66;63.47;100347.20;125958;1095;64432;-80
2021/07/28 08:54:46;;;;;;;6.03;3.30;;;;;;;21.69;63.17;100340.46;125640;1096;64192;-79
2021/07/28 08:57:14;;;;;;;10.07;4.20;;;;;;;21.70;63.28;100337.52;125310;1096;64307;-78
2021/07/28 08:59:55;;;;;;;7.03;3.20;;;;;;;21.70;63.33;100340.21;125226;1095;64297;-83
2021/07/28 09:02:22;;;;;;;5.80;3.90;;;;;;;21.86;63.13;100338.43;125898;1095;64285;-80
2021/07/28 09:04:55;;;;;;;4.67;3.40;;;;;;;21.93;62.46;100347.14;125365;1096;64340;-81
2021/07/28 09:07:23;;;;;;;4.47;3.20;;;;;;;22.05;61.55;100349.64;125780;1095;64226;-79
2021/07/28 09:09:58;;;;;;;5.77;3.83;;;;;;;22.32;61.88;100338.77;125426;1095;64258;-79
2021/07/28 09:12:33;;;;;;;3.70;2.97;;;;;;;22.55;61.21;100350.25;124933;1096;64364;-79
2021/07/28 09:15:05;;;;;;;5.20;3.20;;;;;;;22.60;59.62;100350.27;125054;1096;64298;-79
2021/07/28 09:17:37;;;;;;;6.95;3.70;;;;;;;22.53;59.78;100347.00;125151;1096;64361;-80
2021/07/28 09:20:07;;;;;;;5.67;4.23;;;;;;;22.58;59.51;100347.01;125333;1095;64240;-81
2021/07/28 09:22:41;;;;;;;6.87;3.83;;;;;;;22.38;59.15;100337.73;125590;1096;64300;-85
2021/07/28 09:25:13;;;;;;;5.93;3.93;;;;;;;22.31;60.17;100347.13;125465;1095;64285;-82
2021/07/28 09:27:41;;;;;;;5.80;3.80;;;;;;;22.33;60.50;100343.09;125239;1096;64313;-79
2021/07/28 09:30:29;;;;;;;7.73;3.50;;;;;;;22.39;59.52;100350.15;125198;1095;64732;-79
2021/07/28 09:32:56;;;;;;;4.50;3.27;;;;;;;22.44;58.63;100338.58;125128;1096;64285;-79
2021/07/28 09:35:46;;;;;;;5.83;3.40;;;;;;;22.38;58.79;100353.13;125122;1095;64261;-78
2021/07/28 09:38:46;;;;;;;5.13;3.23;;;;;;;22.44;60.28;100360.20;125140;1096;64304;-79
2021/07/28 09:41:19;;;;;;;5.70;2.87;;;;;;;22.66;59.64;100353.81;125028;1095;64230;-79
2021/07/28 09:44:00;;;;;;;5.40;3.03;;;;;;;22.77;58.04;100350.06;125254;1096;64349;-79
2021/07/28 09:46:35;;;;;;;4.10;2.70;;;;;;;22.80;56.75;100350.36;125154;1096;64387;-81
2021/07/28 09:49:09;;;;;;;4.07;2.63;;;;;;;22.92;57.46;100335.78;125317;1096;64249;-80
2021/07/28 09:51:41;;;;;;;4.17;3.00;;;;;;;22.91;56.41;100344.96;125161;1095;64340;-81
2021/07/28 09:54:13;;;;;;;4.73;2.60;;;;;;;22.83;56.69;100337.39;125240;1096;64226;-82
2021/07/28 09:56:53;;;;;;;4.90;2.80;;;;;;;23.05;57.77;100345.31;125140;1095;64320;-81
2021/07/28 09:59:24;;;;;;;4.73;2.70;;;;;;;23.22;56.55;100335.07;125157;1096;64873;-81
2021/07/28 10:01:52;;;;;;;5.53;3.00;;;;;;;23.20;57.04;100337.23;125158;1096;64261;-81
2021/07/28 10:04:21;;;;;;;3.77;2.90;;;;;;;23.15;56.83;100338.03;125475;1096;64259;-80
2021/07/28 10:06:52;;;;;;;4.73;2.33;;;;;;;23.17;56.97;100333.17;125103;1096;64307;-82
2021/07/28 10:09:42;;;;;;;4.07;2.67;;;;;;;23.25;56.38;100333.72;125567;1096;64205;-83
2021/07/28 10:12:12;;;;;;;4.07;2.70;;;;;;;23.52;55.86;100326.16;124817;1095;64284;-81
2021/07/28 10:14:42;;;;;;;3.43;2.40;;;;;;;23.74;55.49;100325.91;125374;1096;64256;-80
2021/07/28 10:17:15;;;;;;;4.93;2.87;;;;;;;23.75;53.59;100316.69;125422;1095;64286;-79
2021/07/28 10:19:54;;;;;;;5.37;2.80;;;;;;;23.89;53.50;100308.06;124783;1096;64290;-79
2021/07/28 10:22:31;;;;;;;3.17;2.33;;;;;;;24.00;52.42;100313.17;125356;1096;64316;-80
2021/07/28 10:25:01;;;;;;;3.70;2.40;;;;;;;24.04;52.92;100299.09;124993;1097;64272;-79
2021/07/28 10:27:37;;;;;;;5.33;2.40;;;;;;;24.03;53.28;100300.16;125246;1096;64703;-80
2021/07/28 10:30:04;;;;;;;4.57;2.90;;;;;;;24.10;52.69;100289.84;125071;1095;64323;-79
2021/07/28 10:32:34;;;;;;;5.23;2.80;;;;;;;24.08;52.35;100286.59;125140;1095;64326;-80
2021/07/28 10:35:17;;;;;;;4.55;2.75;;;;;;;24.09;51.91;100293.65;125460;1096;64264;-80
2021/07/28 10:37:48;;;;;;;3.40;2.60;;;;;;;24.13;51.53;100286.59;125346;1096;64295;-79
2021/07/28 10:40:24;;;;;;;4.23;2.50;;;;;;;23.97;51.41;100275.80;125097;1096;64259;-80
2021/07/28 10:42:54;;;;;;;5.53;2.93;;;;;;;23.85;51.72;100277.98;125377;1096;64272;-81
2021/07/28 10:45:23;;;;;;;2.83;2.50;;;;;;;23.75;51.90;100283.38;125233;1095;64300;-81
2021/07/28 10:47:54;;;;;;;2.90;2.47;;;;;;;23.84;50.92;100291.80;125467;1095;64279;-77
2021/07/28 10:50:31;;;;;;;3.73;2.87;;;;;;;23.82;51.08;100289.35;125094;1096;64317;-81
2021/07/28 10:53:00;;;;;;;4.17;2.47;;;;;;;23.92;51.27;100274.99;125374;1096;64307;-80
2021/07/28 10:55:38;;;;;;;3.45;2.60;;;;;;;24.24;50.53;100277.34;125007;1096;64307;-83
2021/07/28 10:58:11;;;;;;;6.10;2.70;;;;;;;24.47;49.86;100277.80;125282;1096;64336;-80
2021/07/28 11:00:38;;;;;;;3.67;2.40;;;;;;;24.47;48.45;100272.38;125277;1096;64301;-80
2021/07/28 11:03:13;;;;;;;4.95;3.10;;;;;;;24.48;49.77;100284.84;125115;1096;64374;-82
2021/07/28 11:05:48;;;;;;;3.80;2.40;;;;;;;24.46;49.94;100270.74;125353;1095;64243;-82
2021/07/28 11:08:22;;;;;;;6.87;3.13;;;;;;;24.59;50.72;100270.20;125283;1096;63018;-80
2021/07/28 11:10:55;;;;;;;6.17;3.00;;;;;;;24.84;50.08;100271.93;126453;1096;64185;-81
2021/07/28 11:13:27;;;;;;;4.97;2.90;;;;;;;24.92;48.56;100278.68;126375;1095;64282;-79
2021/07/28 11:15:58;;;;;;;5.00;3.00;;;;;;;25.04;48.18;100265.58;127043;1095;62913;-80
2021/07/28 11:18:40;;;;;;;4.03;2.60;;;;;;;24.95;48.46;100272.67;125113;1095;64396;-80
2021/07/28 11:21:14;;;;;;;3.73;2.50;;;;;;;24.78;49.22;100263.03;125077;1096;64246;-83
2021/07/28 11:23:50;;;;;;;6.20;2.77;;;;;;;24.67;49.36;100261.45;124917;1095;64420;-81
2021/07/28 11:26:25;;;;;;;6.37;3.10;;;;;;;24.52;49.21;100264.24;125414;1096;64454;-80
2021/07/28 11:28:58;;;;;;;3.30;2.20;;;;;;;24.43;50.02;100263.98;124873;1096;64298;-81
2021/07/28 11:31:34;;;;;;;3.33;2.20;;;;;;;24.35;50.98;100248.29;124987;1096;64318;-79
2021/07/28 11:34:22;;;;;;;4.37;2.50;;;;;;;24.21;50.44;100253.51;125156;1096;64371;-79